Time;durP1;ratioP1;P1;durP2;ratioP2;P2;SDS_P1;SDS_P2;PMS_P1;PMS_P2;Temp;Humidity;BMP_temperature;BMP_pressure;BME280_temperature;BME280_humidity;BME280_pressure;Samples;Min_cycle;Max_cycle;Signal;HPM_P1;HPM_P2
2019/11/19 00:02:27;;;;;;;1.35;1.25;;;;;;;19.57;45.22;100364.09;;;;-53
2019/11/19 00:05:28;;;;;;;1.44;1.34;;;;;;;19.57;45.26;100361.91;;;;-53
2019/11/19 00:08:28;;;;;;;1.40;1.30;;;;;;;19.56;45.15;100364.78;;;;-53
2019/11/19 00:11:28;;;;;;;1.51;1.41;;;;;;;19.55;45.30;100362.16;;;;-53
2019/11/19 00:14:28;;;;;;;1.45;1.35;;;;;;;19.54;45.26;100356.59;;;;-53
2019/11/19 00:17:27;;;;;;;1.40;1.30;;;;;;;19.54;45.19;100359.84;;;;-53
2019/11/19 00:20:42;;;;;;;1.44;1.33;;;;;;;19.53;45.28;100360.57;;;;-51
2019/11/19 00:23:28;;;;;;;1.67;1.34;;;;;;;19.52;45.35;100365.78;;;;-52
2019/11/19 00:26:47;;;;;;;1.42;1.32;;;;;;;19.51;45.29;100365.23;;;;-51
2019/11/19 00:29:27;;;;;;;1.45;1.35;;;;;;;19.50;45.43;100368.98;;;;-52
2019/11/19 00:32:27;;;;;;;1.40;1.30;;;;;;;19.49;45.28;100374.81;;;;-51
2019/11/19 00:35:27;;;;;;;1.39;1.29;;;;;;;19.49;45.29;100380.09;;;;-53
2019/11/19 00:38:27;;;;;;;1.49;1.39;;;;;;;19.49;45.41;100385.42;;;;-52
2019/11/19 00:41:28;;;;;;;1.40;1.30;;;;;;;19.47;45.31;100387.62;;;;-52
2019/11/19 00:44:28;;;;;;;1.40;1.30;;;;;;;19.46;45.32;100393.20;;;;-52
2019/11/19 00:47:28;;;;;;;1.30;1.20;;;;;;;19.45;45.35;100394.23;;;;-53
2019/11/19 00:50:27;;;;;;;1.47;1.37;;;;;;;19.44;45.46;100392.17;;;;-51
2019/11/19 00:53:28;;;;;;;1.50;1.40;;;;;;;19.44;45.31;100394.25;;;;-52
2019/11/19 00:56:28;;;;;;;1.47;1.37;;;;;;;19.42;45.45;100387.23;;;;-51
2019/11/19 00:59:28;;;;;;;1.40;1.30;;;;;;;19.41;45.35;100388.56;;;;-52
2019/11/19 01:02:28;;;;;;;1.50;1.40;;;;;;;19.41;45.41;100387.75;;;;-51
2019/11/19 01:05:28;;;;;;;1.40;1.30;;;;;;;19.39;45.46;100390.45;;;;-51
2019/11/19 01:08:28;;;;;;;1.48;1.38;;;;;;;19.39;45.39;100388.48;;;;-51
2019/11/19 01:11:28;;;;;;;1.50;1.40;;;;;;;19.38;45.36;100394.32;;;;-52
2019/11/19 01:14:28;;;;;;;1.50;1.40;;;;;;;19.38;45.41;100391.34;;;;-51
2019/11/19 01:17:28;;;;;;;1.56;1.46;;;;;;;19.37;45.45;100391.53;;;;-51
2019/11/19 01:20:28;;;;;;;1.41;1.31;;;;;;;19.36;45.36;100395.67;;;;-51
2019/11/19 01:23:28;;;;;;;1.49;1.39;;;;;;;19.35;45.42;100393.72;;;;-51
2019/11/19 01:26:27;;;;;;;1.59;1.49;;;;;;;19.33;45.40;100393.88;;;;-52
2019/11/19 01:29:27;;;;;;;1.41;1.31;;;;;;;19.34;45.44;100398.87;;;;-52
2019/11/19 01:32:27;;;;;;;1.50;1.40;;;;;;;19.32;45.44;100397.10;;;;-51
2019/11/19 01:35:27;;;;;;;1.60;1.50;;;;;;;19.31;45.53;100401.59;;;;-53
2019/11/19 01:38:28;;;;;;;1.66;1.43;;;;;;;19.31;45.40;100403.83;;;;-51
2019/11/19 01:41:28;;;;;;;1.60;1.50;;;;;;;19.30;45.46;100411.09;;;;-52
2019/11/19 01:44:28;;;;;;;1.50;1.40;;;;;;;19.29;45.45;100408.42;;;;-52
2019/11/19 01:47:27;;;;;;;1.54;1.44;;;;;;;19.29;45.46;100411.20;;;;-51
2019/11/19 01:50:27;;;;;;;1.50;1.40;;;;;;;19.28;45.48;100407.88;;;;-52
2019/11/19 01:53:27;;;;;;;1.60;1.50;;;;;;;19.27;45.45;100405.59;;;;-51
2019/11/19 01:56:27;;;;;;;1.55;1.45;;;;;;;19.26;45.51;100407.83;;;;-52
2019/11/19 01:59:28;;;;;;;1.47;1.37;;;;;;;19.26;45.45;100411.75;;;;-53
2019/11/19 02:02:28;;;;;;;1.54;1.44;;;;;;;19.26;45.50;100418.10;;;;-51
2019/11/19 02:05:28;;;;;;;1.54;1.44;;;;;;;19.24;45.54;100419.02;;;;-51
2019/11/19 02:08:28;;;;;;;1.69;1.45;;;;;;;19.24;45.55;100427.16;;;;-52
2019/11/19 02:11:27;;;;;;;1.50;1.40;;;;;;;19.23;45.47;100428.02;;;;-52
2019/11/19 02:14:27;;;;;;;1.59;1.49;;;;;;;19.22;45.49;100424.95;;;;-51
2019/11/19 02:17:27;;;;;;;1.50;1.40;;;;;;;19.20;45.50;100426.65;;;;-52
2019/11/19 02:20:28;;;;;;;1.70;1.60;;;;;;;19.19;45.53;100428.88;;;;-52
2019/11/19 02:23:28;;;;;;;1.59;1.49;;;;;;;19.19;45.53;100431.80;;;;-51
2019/11/19 02:26:27;;;;;;;1.50;1.40;;;;;;;19.19;45.51;100426.77;;;;-52
2019/11/19 02:29:28;;;;;;;1.68;1.50;;;;;;;19.18;45.68;100427.90;;;;-51
2019/11/19 02:32:27;;;;;;;1.50;1.40;;;;;;;19.18;45.57;100430.34;;;;-52
2019/11/19 02:35:28;;;;;;;1.49;1.39;;;;;;;19.17;45.63;100432.64;;;;-52
2019/11/19 02:38:27;;;;;;;1.54;1.44;;;;;;;19.16;45.61;100430.31;;;;-52
2019/11/19 02:41:28;;;;;;;1.60;1.50;;;;;;;19.15;45.60;100427.98;;;;-52
2019/11/19 02:44:43;;;;;;;1.70;1.60;;;;;;;19.15;45.64;100420.45;;;;-51
2019/11/19 02:47:28;;;;;;;1.65;1.55;;;;;;;19.14;45.57;100424.26;;;;-52
2019/11/19 02:50:28;;;;;;;1.55;1.45;;;;;;;19.14;45.52;100429.62;;;;-51
2019/11/19 02:53:28;;;;;;;1.60;1.50;;;;;;;19.13;45.63;100426.66;;;;-52
2019/11/19 02:56:27;;;;;;;1.63;1.53;;;;;;;19.12;45.53;100423.47;;;;-51
2019/11/19 02:59:28;;;;;;;1.52;1.42;;;;;;;19.11;45.61;100421.52;;;;-57
2019/11/19 03:02:27;;;;;;;1.50;1.40;;;;;;;19.11;45.57;100416.27;;;;-57
2019/11/19 03:05:28;;;;;;;1.59;1.49;;;;;;;19.11;45.67;100417.83;;;;-57
2019/11/19 03:08:27;;;;;;;1.53;1.43;;;;;;;19.10;45.71;100425.83;;;;-57
2019/11/19 03:11:27;;;;;;;1.61;1.51;;;;;;;19.09;45.68;100424.44;;;;-57
2019/11/19 03:14:28;;;;;;;1.57;1.47;;;;;;;19.08;45.62;100414.18;;;;-57
2019/11/19 03:17:27;;;;;;;1.60;1.50;;;;;;;19.07;45.66;100418.38;;;;-56
2019/11/19 03:20:28;;;;;;;1.57;1.47;;;;;;;19.07;45.64;100416.31;;;;-56
2019/11/19 03:23:27;;;;;;;1.56;1.46;;;;;;;19.06;45.70;100417.09;;;;-57
2019/11/19 03:26:28;;;;;;;1.50;1.40;;;;;;;19.05;45.78;100414.78;;;;-56
2019/11/19 03:29:28;;;;;;;1.70;1.60;;;;;;;19.05;45.74;100422.14;;;;-57
2019/11/19 03:32:28;;;;;;;1.51;1.41;;;;;;;19.04;45.76;100414.17;;;;-57
2019/11/19 03:35:28;;;;;;;1.78;1.56;;;;;;;19.04;45.76;100420.13;;;;-57
2019/11/19 03:38:27;;;;;;;1.74;1.64;;;;;;;19.03;45.70;100413.39;;;;-57
2019/11/19 03:41:27;;;;;;;1.51;1.41;;;;;;;19.02;45.72;100412.41;;;;-57
2019/11/19 03:44:27;;;;;;;1.72;1.62;;;;;;;19.02;45.64;100412.23;;;;-57
2019/11/19 03:47:27;;;;;;;1.60;1.50;;;;;;;19.01;45.65;100410.35;;;;-57
2019/11/19 03:50:28;;;;;;;1.76;1.66;;;;;;;19.02;45.62;100415.25;;;;-57
2019/11/19 03:53:27;;;;;;;1.59;1.49;;;;;;;19.00;45.73;100415.43;;;;-57
2019/11/19 03:56:28;;;;;;;1.60;1.50;;;;;;;19.00;45.77;100412.98;;;;-57
2019/11/19 03:59:28;;;;;;;1.64;1.54;;;;;;;19.00;45.70;100409.46;;;;-57
2019/11/19 04:02:28;;;;;;;1.61;1.51;;;;;;;18.98;45.70;100409.31;;;;-57
2019/11/19 04:05:27;;;;;;;1.65;1.55;;;;;;;18.99;45.68;100418.56;;;;-57
2019/11/19 04:08:28;;;;;;;1.61;1.51;;;;;;;18.99;45.63;100418.45;;;;-57
2019/11/19 04:11:27;;;;;;;1.67;1.57;;;;;;;18.99;45.65;100423.08;;;;-57
2019/11/19 04:14:28;;;;;;;1.73;1.57;;;;;;;19.00;45.61;100423.19;;;;-57
2019/11/19 04:17:28;;;;;;;1.65;1.55;;;;;;;19.00;45.66;100422.86;;;;-57
2019/11/19 04:20:28;;;;;;;1.60;1.50;;;;;;;19.02;45.65;100427.80;;;;-57
2019/11/19 04:23:27;;;;;;;1.66;1.56;;;;;;;19.05;45.66;100428.94;;;;-57
2019/11/19 04:26:28;;;;;;;1.60;1.50;;;;;;;19.06;45.64;100434.41;;;;-57
2019/11/19 04:29:27;;;;;;;1.43;1.33;;;;;;;19.08;45.72;100435.27;;;;-57
2019/11/19 04:32:28;;;;;;;1.60;1.50;;;;;;;19.10;45.82;100437.98;;;;-57
2019/11/19 04:35:28;;;;;;;1.57;1.47;;;;;;;19.13;45.94;100443.33;;;;-57
2019/11/19 04:38:27;;;;;;;1.59;1.49;;;;;;;19.15;46.04;100440.87;;;;-57
2019/11/19 04:41:28;;;;;;;1.51;1.41;;;;;;;19.18;46.11;100446.38;;;;-56
2019/11/19 04:44:28;;;;;;;1.70;1.60;;;;;;;19.20;46.13;100445.80;;;;-56
2019/11/19 04:47:27;;;;;;;1.67;1.57;;;;;;;19.23;46.03;100447.94;;;;-57
2019/11/19 04:50:27;;;;;;;1.55;1.45;;;;;;;19.27;46.02;100445.88;;;;-56
2019/11/19 04:53:27;;;;;;;1.37;1.27;;;;;;;19.30;45.94;100448.09;;;;-57
2019/11/19 04:56:27;;;;;;;1.52;1.42;;;;;;;19.33;45.91;100446.21;;;;-57
2019/11/19 04:59:27;;;;;;;1.50;1.40;;;;;;;19.37;45.97;100452.70;;;;-56
2019/11/19 05:02:27;;;;;;;1.53;1.43;;;;;;;19.40;45.91;100453.19;;;;-56
2019/11/19 05:05:28;;;;;;;1.55;1.45;;;;;;;19.43;46.04;100457.37;;;;-57
2019/11/19 05:08:28;;;;;;;1.50;1.40;;;;;;;19.46;46.02;100462.17;;;;-57
2019/11/19 05:11:28;;;;;;;1.60;1.50;;;;;;;19.48;46.04;100461.29;;;;-57
2019/11/19 05:14:28;;;;;;;1.52;1.42;;;;;;;19.50;46.05;100466.41;;;;-57
2019/11/19 05:17:28;;;;;;;1.53;1.43;;;;;;;19.52;46.07;100466.39;;;;-57
2019/11/19 05:20:28;;;;;;;1.50;1.40;;;;;;;19.54;46.01;100469.16;;;;-56
2019/11/19 05:23:27;;;;;;;1.57;1.47;;;;;;;19.55;46.02;100471.39;;;;-55
2019/11/19 05:26:28;;;;;;;1.51;1.41;;;;;;;19.57;45.91;100473.38;;;;-57
2019/11/19 05:29:27;;;;;;;1.50;1.40;;;;;;;19.57;45.97;100470.64;;;;-57
2019/11/19 05:32:28;;;;;;;1.60;1.50;;;;;;;19.58;45.98;100465.14;;;;-56
2019/11/19 05:35:27;;;;;;;1.58;1.48;;;;;;;19.59;45.95;100468.61;;;;-55
2019/11/19 05:38:28;;;;;;;1.50;1.40;;;;;;;19.59;45.93;100471.45;;;;-56
2019/11/19 05:41:27;;;;;;;1.41;1.31;;;;;;;19.60;45.94;100474.85;;;;-56
2019/11/19 05:44:28;;;;;;;1.50;1.40;;;;;;;19.59;45.91;100473.91;;;;-52
2019/11/19 05:47:27;;;;;;;1.59;1.49;;;;;;;19.59;45.94;100475.58;;;;-51
2019/11/19 05:50:28;;;;;;;1.59;1.49;;;;;;;19.59;45.94;100472.62;;;;-51
2019/11/19 05:53:28;;;;;;;1.50;1.40;;;;;;;19.59;45.90;100478.27;;;;-51
2019/11/19 05:56:27;;;;;;;1.60;1.50;;;;;;;19.60;45.88;100480.28;;;;-51
2019/11/19 05:59:27;;;;;;;1.59;1.49;;;;;;;19.59;45.91;100480.60;;;;-51
2019/11/19 06:02:28;;;;;;;1.55;1.45;;;;;;;19.59;45.92;100483.28;;;;-52
2019/11/19 06:05:28;;;;;;;1.57;1.47;;;;;;;19.59;46.01;100484.70;;;;-51
2019/11/19 06:08:28;;;;;;;1.57;1.47;;;;;;;19.58;45.92;100480.56;;;;-51
2019/11/19 06:11:28;;;;;;;1.51;1.41;;;;;;;19.58;45.92;100484.31;;;;-51
2019/11/19 06:14:28;;;;;;;1.58;1.48;;;;;;;19.58;45.89;100485.08;;;;-51
2019/11/19 06:18:28;;;;;;;1.48;1.38;;;;;;;19.57;45.96;100488.78;;;;-51
2019/11/19 06:21:28;;;;;;;3.65;1.97;;;;;;;19.61;45.52;100489.80;;;;-47
2019/11/19 06:24:28;;;;;;;3.93;1.75;;;;;;;19.62;45.82;100494.87;;;;-51
2019/11/19 06:27:27;;;;;;;2.01;1.60;;;;;;;19.64;46.08;100499.09;;;;-49
2019/11/19 06:30:28;;;;;;;2.43;1.58;;;;;;;19.67;46.23;100497.95;;;;-49
2019/11/19 06:34:28;;;;;;;3.40;1.66;;;;;;;19.73;46.56;100499.84;;;;-47
2019/11/19 06:37:28;;;;;;;2.32;1.61;;;;;;;19.78;46.46;100505.47;;;;-47
2019/11/19 06:40:28;;;;;;;2.01;1.70;;;;;;;19.82;46.41;100508.23;;;;-48
2019/11/19 06:43:28;;;;;;;2.07;1.66;;;;;;;19.86;46.34;100510.58;;;;-48
2019/11/19 06:46:28;;;;;;;2.75;1.67;;;;;;;19.91;46.51;100516.49;;;;-48
2019/11/19 06:49:28;;;;;;;2.35;1.55;;;;;;;19.95;46.69;100520.66;;;;-50
2019/11/19 06:52:28;;;;;;;1.99;1.59;;;;;;;19.99;46.64;100522.08;;;;-49
2019/11/19 06:55:28;;;;;;;2.22;1.65;;;;;;;20.04;46.55;100528.56;;;;-49
2019/11/19 06:58:28;;;;;;;2.21;1.53;;;;;;;20.07;46.57;100529.77;;;;-49
2019/11/19 07:01:28;;;;;;;2.08;1.64;;;;;;;20.13;46.48;100530.45;;;;-51
2019/11/19 07:04:28;;;;;;;1.80;1.70;;;;;;;20.15;46.17;100537.42;;;;-50
2019/11/19 07:07:28;;;;;;;1.63;1.53;;;;;;;20.18;46.39;100539.97;;;;-51
2019/11/19 07:10:28;;;;;;;1.70;1.60;;;;;;;20.21;46.47;100543.38;;;;-50
2019/11/19 07:13:28;;;;;;;1.74;1.50;;;;;;;20.24;46.71;100548.44;;;;-52
2019/11/19 07:16:28;;;;;;;2.17;1.68;;;;;;;20.26;46.68;100553.89;;;;-49
2019/11/19 07:19:28;;;;;;;1.74;1.64;;;;;;;20.28;46.71;100556.12;;;;-53
2019/11/19 07:22:28;;;;;;;1.69;1.59;;;;;;;20.30;46.56;100556.23;;;;-51
2019/11/19 07:25:28;;;;;;;1.79;1.61;;;;;;;20.32;46.55;100557.91;;;;-50
2019/11/19 07:28:28;;;;;;;1.69;1.59;;;;;;;20.33;46.49;100560.13;;;;-51
2019/11/19 07:31:28;;;;;;;1.83;1.73;;;;;;;20.35;46.78;100563.57;;;;-48
2019/11/19 07:34:28;;;;;;;3.25;2.13;;;;;;;20.33;44.92;100565.09;;;;-48
2019/11/19 07:37:28;;;;;;;2.88;2.00;;;;;;;20.34;45.12;100561.51;;;;-51
2019/11/19 07:40:28;;;;;;;2.30;2.10;;;;;;;20.33;44.86;100567.00;;;;-50
2019/11/19 07:43:28;;;;;;;2.89;1.97;;;;;;;20.38;45.66;100562.78;;;;-48
2019/11/19 07:46:28;;;;;;;2.93;1.95;;;;;;;20.39;45.84;100564.91;;;;-49
2019/11/19 07:49:28;;;;;;;3.00;1.90;;;;;;;20.40;45.97;100567.07;;;;-48
2019/11/19 07:52:28;;;;;;;2.03;1.75;;;;;;;20.42;46.14;100571.08;;;;-51
2019/11/19 07:55:27;;;;;;;2.77;1.81;;;;;;;20.43;46.12;100575.81;;;;-47
2019/11/19 07:58:28;;;;;;;2.91;1.90;;;;;;;20.45;46.25;100579.20;;;;-48
2019/11/19 08:01:28;;;;;;;3.71;1.81;;;;;;;20.48;46.30;100583.03;;;;-50
2019/11/19 08:04:28;;;;;;;2.33;1.80;;;;;;;20.49;46.17;100581.44;;;;-51
2019/11/19 08:07:27;;;;;;;3.13;1.92;;;;;;;20.48;46.08;100584.92;;;;-54
2019/11/19 08:10:28;;;;;;;2.09;1.79;;;;;;;20.51;46.31;100589.20;;;;-51
2019/11/19 08:13:28;;;;;;;2.04;1.80;;;;;;;20.54;46.42;100590.44;;;;-50
2019/11/19 08:16:28;;;;;;;2.02;1.81;;;;;;;20.53;46.21;100592.34;;;;-48
2019/11/19 08:19:28;;;;;;;3.02;1.87;;;;;;;20.54;46.22;100593.50;;;;-47
2019/11/19 08:22:28;;;;;;;2.85;1.89;;;;;;;20.55;46.12;100600.05;;;;-45
2019/11/19 08:25:28;;;;;;;3.21;1.65;;;;;;;20.57;46.30;100599.97;;;;-50
2019/11/19 08:28:28;;;;;;;2.77;1.70;;;;;;;20.58;46.31;100599.06;;;;-49
2019/11/19 08:31:28;;;;;;;1.79;1.69;;;;;;;20.59;46.17;100604.85;;;;-46
2019/11/19 08:34:28;;;;;;;1.80;1.69;;;;;;;20.61;46.47;100609.53;;;;-47
2019/11/19 08:37:28;;;;;;;1.99;1.79;;;;;;;20.61;46.23;100612.22;;;;-50
2019/11/19 08:40:28;;;;;;;2.97;1.90;;;;;;;20.62;46.29;100615.17;;;;-47
2019/11/19 08:43:28;;;;;;;2.05;1.79;;;;;;;20.62;46.32;100614.44;;;;-50
2019/11/19 08:46:28;;;;;;;2.41;1.80;;;;;;;20.63;46.39;100619.58;;;;-50
2019/11/19 08:49:28;;;;;;;1.99;1.70;;;;;;;20.64;46.41;100621.23;;;;-52
2019/11/19 08:52:28;;;;;;;2.10;1.90;;;;;;;20.66;46.32;100624.58;;;;-49
2019/11/19 08:55:28;;;;;;;2.29;1.89;;;;;;;20.65;46.37;100625.48;;;;-48
2019/11/19 08:58:28;;;;;;;2.15;1.95;;;;;;;20.67;46.35;100630.09;;;;-48
2019/11/19 09:01:28;;;;;;;1.94;1.72;;;;;;;20.66;46.09;100626.36;;;;-47
2019/11/19 09:04:28;;;;;;;1.94;1.70;;;;;;;20.68;46.17;100625.34;;;;-47
2019/11/19 09:07:28;;;;;;;5.69;2.03;;;;;;;20.71;46.22;100625.06;;;;-44
2019/11/19 09:10:28;;;;;;;2.63;1.80;;;;;;;20.71;46.00;100628.48;;;;-48
2019/11/19 09:13:27;;;;;;;2.64;1.80;;;;;;;20.71;46.02;100635.86;;;;-56
2019/11/19 09:16:28;;;;;;;2.19;1.78;;;;;;;20.72;46.06;100639.37;;;;-54
2019/11/19 09:19:28;;;;;;;3.22;1.80;;;;;;;20.72;46.12;100643.97;;;;-55
2019/11/19 09:22:28;;;;;;;3.00;1.75;;;;;;;20.75;45.93;100642.48;;;;-60
2019/11/19 09:25:28;;;;;;;2.74;1.78;;;;;;;20.74;45.72;100636.06;;;;-60
2019/11/19 09:28:28;;;;;;;2.00;1.80;;;;;;;20.72;45.65;100636.98;;;;-61
2019/11/19 09:31:28;;;;;;;1.72;1.62;;;;;;;20.71;45.53;100643.19;;;;-60
2019/11/19 09:34:28;;;;;;;2.45;1.79;;;;;;;20.69;45.54;100641.15;;;;-60
2019/11/19 09:37:28;;;;;;;2.11;1.73;;;;;;;20.69;45.52;100648.64;;;;-60
2019/11/19 09:40:28;;;;;;;1.97;1.79;;;;;;;20.68;45.38;100648.77;;;;-51
2019/11/19 09:43:28;;;;;;;2.67;1.60;;;;;;;20.68;45.41;100647.75;;;;-50
2019/11/19 09:46:28;;;;;;;1.87;1.77;;;;;;;20.68;45.38;100648.66;;;;-51
2019/11/19 09:49:28;;;;;;;1.80;1.70;;;;;;;20.67;45.40;100646.53;;;;-50
2019/11/19 09:52:27;;;;;;;1.91;1.72;;;;;;;20.67;45.37;100648.61;;;;-50
2019/11/19 09:55:28;;;;;;;2.14;1.82;;;;;;;20.67;45.33;100646.60;;;;-51
2019/11/19 09:58:28;;;;;;;5.03;2.00;;;;;;;20.68;45.34;100645.80;;;;-52
2019/11/19 10:01:28;;;;;;;3.03;1.74;;;;;;;20.68;45.35;100645.80;;;;-46
2019/11/19 10:04:27;;;;;;;4.02;1.82;;;;;;;20.70;45.41;100648.08;;;;-47
2019/11/19 10:07:28;;;;;;;3.89;1.80;;;;;;;20.71;45.55;100649.56;;;;-48
2019/11/19 10:10:28;;;;;;;3.01;1.74;;;;;;;20.72;45.58;100651.58;;;;-48
2019/11/19 10:13:28;;;;;;;4.23;1.87;;;;;;;20.72;45.66;100646.31;;;;-51
2019/11/19 10:16:28;;;;;;;2.53;1.76;;;;;;;20.73;45.69;100647.42;;;;-48
2019/11/19 10:19:28;;;;;;;1.91;1.68;;;;;;;20.74;45.83;100645.39;;;;-49
2019/11/19 10:22:28;;;;;;;1.97;1.82;;;;;;;20.74;45.94;100643.87;;;;-48
2019/11/19 10:25:28;;;;;;;1.80;1.70;;;;;;;20.76;46.00;100647.89;;;;-45
2019/11/19 10:28:27;;;;;;;8.30;4.05;;;;;;;20.47;43.45;100652.26;;;;-51
2019/11/19 10:31:28;;;;;;;6.77;3.71;;;;;;;20.50;44.11;100653.75;;;;-51
2019/11/19 10:34:28;;;;;;;5.55;3.31;;;;;;;20.58;44.84;100655.78;;;;-44
2019/11/19 10:37:28;;;;;;;4.21;2.72;;;;;;;20.62;45.23;100650.34;;;;-50
2019/11/19 10:40:28;;;;;;;6.23;2.37;;;;;;;20.67;45.48;100649.39;;;;-51
2019/11/19 10:43:28;;;;;;;6.75;2.49;;;;;;;20.71;45.33;100652.24;;;;-49
2019/11/19 10:46:28;;;;;;;3.63;2.29;;;;;;;20.71;45.23;100650.06;;;;-47
2019/11/19 10:49:28;;;;;;;4.79;2.39;;;;;;;20.74;45.45;100655.86;;;;-48
2019/11/19 10:52:28;;;;;;;5.21;2.20;;;;;;;20.75;45.48;100656.45;;;;-48
2019/11/19 10:55:28;;;;;;;3.89;2.05;;;;;;;20.77;45.49;100655.66;;;;-50
2019/11/19 10:58:28;;;;;;;6.65;2.46;;;;;;;20.80;45.58;100658.27;;;;-47
2019/11/19 11:01:28;;;;;;;5.90;2.11;;;;;;;20.82;45.75;100653.31;;;;-48
2019/11/19 11:04:28;;;;;;;4.22;2.22;;;;;;;20.84;45.85;100653.23;;;;-45
2019/11/19 11:07:31;;;;;;;6.77;2.21;;;;;;;20.85;45.88;100648.67;;;;-48
2019/11/19 11:10:28;;;;;;;7.18;2.34;;;;;;;20.88;46.03;100650.67;;;;-51
2019/11/19 11:13:28;;;;;;;3.77;2.03;;;;;;;20.92;45.98;100652.35;;;;-52
2019/11/19 11:16:28;;;;;;;10.37;2.35;;;;;;;20.93;46.27;100652.77;;;;-50
2019/11/19 11:19:28;;;;;;;7.99;2.50;;;;;;;20.96;46.05;100649.20;;;;-50
2019/11/19 11:22:28;;;;;;;5.53;2.45;;;;;;;20.96;46.23;100647.75;;;;-51
2019/11/19 11:25:28;;;;;;;4.83;2.21;;;;;;;20.97;46.30;100646.56;;;;-51
2019/11/19 11:28:28;;;;;;;7.14;2.17;;;;;;;20.96;46.10;100646.92;;;;-49
2019/11/19 11:31:28;;;;;;;4.95;1.89;;;;;;;20.96;46.16;100652.22;;;;-51
2019/11/19 11:34:28;;;;;;;5.04;1.99;;;;;;;20.99;46.31;100647.44;;;;-50
2019/11/19 11:37:28;;;;;;;12.65;2.61;;;;;;;21.01;46.24;100653.10;;;;-49
2019/11/19 11:40:28;;;;;;;9.00;2.07;;;;;;;21.02;46.14;100649.12;;;;-47
2019/11/19 11:43:28;;;;;;;6.27;2.09;;;;;;;21.04;46.21;100652.02;;;;-49
2019/11/19 11:46:28;;;;;;;7.49;1.99;;;;;;;21.06;46.48;100653.48;;;;-45
2019/11/19 11:49:28;;;;;;;9.76;2.06;;;;;;;21.06;46.52;100651.42;;;;-47
2019/11/19 11:52:28;;;;;;;9.10;2.29;;;;;;;21.09;46.22;100654.57;;;;-48
2019/11/19 11:55:28;;;;;;;9.72;2.21;;;;;;;21.08;46.19;100653.86;;;;-46
2019/11/19 11:58:28;;;;;;;20.22;2.51;;;;;;;21.10;46.23;100655.11;;;;-48
2019/11/19 12:01:28;;;;;;;8.77;2.36;;;;;;;21.08;45.92;100653.63;;;;-57
2019/11/19 12:04:28;;;;;;;5.55;2.03;;;;;;;21.08;45.80;100650.00;;;;-48
2019/11/19 12:07:28;;;;;;;8.11;2.09;;;;;;;21.07;45.92;100650.52;;;;-46
2019/11/19 12:10:28;;;;;;;6.86;2.03;;;;;;;21.05;45.90;100652.16;;;;-48
2019/11/19 12:13:28;;;;;;;4.95;2.07;;;;;;;21.04;45.98;100652.92;;;;-47
2019/11/19 12:16:28;;;;;;;7.51;2.19;;;;;;;21.03;45.91;100653.82;;;;-47
2019/11/19 12:19:28;;;;;;;3.87;1.86;;;;;;;21.02;45.90;100652.60;;;;-48
2019/11/19 12:22:28;;;;;;;3.13;1.96;;;;;;;21.00;45.87;100648.83;;;;-49
2019/11/19 12:25:28;;;;;;;5.21;2.01;;;;;;;21.01;45.91;100649.38;;;;-51
2019/11/19 12:28:28;;;;;;;3.80;1.89;;;;;;;20.99;45.49;100648.22;;;;-50
2019/11/19 12:31:28;;;;;;;7.26;1.92;;;;;;;20.99;45.65;100648.55;;;;-50
2019/11/19 12:34:28;;;;;;;3.74;1.99;;;;;;;20.98;45.74;100655.84;;;;-50
2019/11/19 12:37:28;;;;;;;6.98;2.03;;;;;;;20.98;45.76;100652.88;;;;-51
2019/11/19 12:40:28;;;;;;;4.85;1.93;;;;;;;20.97;45.91;100649.64;;;;-53
2019/11/19 12:43:28;;;;;;;3.99;1.85;;;;;;;20.98;45.85;100649.02;;;;-51
2019/11/19 12:46:28;;;;;;;4.55;1.90;;;;;;;20.98;45.91;100648.34;;;;-47
2019/11/19 12:49:28;;;;;;;2.51;1.81;;;;;;;20.97;45.94;100649.88;;;;-48
2019/11/19 12:52:28;;;;;;;3.93;1.78;;;;;;;20.97;45.88;100647.80;;;;-48
2019/11/19 12:55:28;;;;;;;3.21;1.86;;;;;;;20.97;45.87;100652.91;;;;-50
2019/11/19 12:58:28;;;;;;;2.99;1.71;;;;;;;20.96;45.89;100647.86;;;;-51
2019/11/19 13:01:28;;;;;;;3.13;1.88;;;;;;;20.97;45.86;100653.34;;;;-50
2019/11/19 13:04:28;;;;;;;2.40;1.70;;;;;;;20.96;45.85;100649.84;;;;-47
2019/11/19 13:07:28;;;;;;;4.57;2.01;;;;;;;20.97;45.88;100647.53;;;;-51
2019/11/19 13:10:28;;;;;;;3.49;1.77;;;;;;;20.98;45.94;100648.58;;;;-51
2019/11/19 13:13:28;;;;;;;4.34;1.73;;;;;;;20.96;45.73;100653.91;;;;-51
2019/11/19 13:16:39;;;;;;;6.09;1.70;;;;;;;20.96;45.46;100653.20;;;;-51
2019/11/19 13:19:32;;;;;;;4.30;1.70;;;;;;;20.93;45.54;100650.42;;;;-51
2019/11/19 13:22:28;;;;;;;2.87;1.81;;;;;;;20.93;45.58;100650.75;;;;-51
2019/11/19 13:25:28;;;;;;;3.51;1.71;;;;;;;20.92;45.54;100650.67;;;;-51
2019/11/19 13:28:28;;;;;;;3.63;1.61;;;;;;;20.90;45.56;100655.73;;;;-51
2019/11/19 13:31:28;;;;;;;2.93;1.70;;;;;;;20.89;45.59;100655.12;;;;-51
2019/11/19 13:34:28;;;;;;;2.90;1.69;;;;;;;20.88;45.57;100651.02;;;;-51
2019/11/19 13:37:28;;;;;;;2.79;1.69;;;;;;;20.87;45.52;100652.25;;;;-51
2019/11/19 13:40:28;;;;;;;3.01;1.65;;;;;;;20.86;45.55;100650.36;;;;-52
2019/11/19 13:43:28;;;;;;;2.49;1.69;;;;;;;20.85;45.57;100653.95;;;;-51
2019/11/19 13:46:27;;;;;;;3.30;1.72;;;;;;;20.85;45.51;100651.72;;;;-51
2019/11/19 13:49:28;;;;;;;2.27;1.56;;;;;;;20.84;45.53;100659.67;;;;-51
2019/11/19 13:52:28;;;;;;;3.35;1.74;;;;;;;20.84;45.52;100661.19;;;;-51
2019/11/19 13:55:28;;;;;;;2.14;1.70;;;;;;;20.83;45.52;100665.51;;;;-51
2019/11/19 13:58:28;;;;;;;2.37;1.70;;;;;;;20.82;45.47;100667.41;;;;-51
2019/11/19 14:01:28;;;;;;;3.23;1.83;;;;;;;20.82;45.48;100660.94;;;;-52
2019/11/19 14:04:28;;;;;;;1.91;1.54;;;;;;;20.81;45.51;100660.77;;;;-51
2019/11/19 14:07:28;;;;;;;2.71;1.60;;;;;;;20.81;45.49;100661.56;;;;-51
2019/11/19 14:10:28;;;;;;;2.59;1.53;;;;;;;20.80;45.52;100663.41;;;;-52
2019/11/19 14:13:28;;;;;;;2.09;1.68;;;;;;;20.80;45.45;100662.73;;;;-51
2019/11/19 14:16:28;;;;;;;2.43;1.70;;;;;;;20.79;45.47;100665.91;;;;-51
2019/11/19 14:19:28;;;;;;;1.57;1.47;;;;;;;20.79;45.49;100666.58;;;;-51
2019/11/19 14:22:28;;;;;;;1.87;1.55;;;;;;;20.79;45.47;100668.03;;;;-52
2019/11/19 14:25:28;;;;;;;2.82;1.62;;;;;;;20.78;45.49;100664.42;;;;-51
2019/11/19 14:28:28;;;;;;;1.87;1.72;;;;;;;20.79;45.46;100663.05;;;;-51
2019/11/19 14:31:28;;;;;;;1.93;1.50;;;;;;;20.78;45.46;100669.12;;;;-51
2019/11/19 14:34:28;;;;;;;1.99;1.52;;;;;;;20.78;45.47;100670.56;;;;-52
2019/11/19 14:37:28;;;;;;;2.83;1.83;;;;;;;20.77;45.57;100671.77;;;;-51
2019/11/19 14:40:28;;;;;;;1.94;1.47;;;;;;;20.77;45.51;100677.01;;;;-51
2019/11/19 14:43:28;;;;;;;2.07;1.60;;;;;;;20.76;45.57;100678.38;;;;-56
2019/11/19 14:46:28;;;;;;;1.98;1.55;;;;;;;20.75;45.54;100679.17;;;;-55
2019/11/19 14:49:28;;;;;;;3.90;1.73;;;;;;;20.74;45.58;100680.97;;;;-51
2019/11/19 14:52:28;;;;;;;3.77;1.85;;;;;;;20.71;44.11;100680.61;;;;-47
2019/11/19 14:55:28;;;;;;;3.05;1.99;;;;;;;20.71;44.22;100679.34;;;;-53
2019/11/19 14:58:28;;;;;;;6.21;1.98;;;;;;;20.67;43.94;100675.73;;;;-54
2019/11/19 15:01:28;;;;;;;7.40;1.94;;;;;;;20.68;44.13;100681.22;;;;-53
2019/11/19 15:04:28;;;;;;;8.94;2.11;;;;;;;20.66;44.47;100685.77;;;;-56
2019/11/19 15:07:28;;;;;;;8.61;2.18;;;;;;;20.66;44.39;100687.28;;;;-57
2019/11/19 15:10:28;;;;;;;8.69;1.80;;;;;;;20.69;44.51;100688.41;;;;-54
2019/11/19 15:13:28;;;;;;;3.55;1.90;;;;;;;20.72;44.79;100689.44;;;;-54
2019/11/19 15:16:28;;;;;;;5.49;1.70;;;;;;;20.75;44.57;100695.78;;;;-56
2019/11/19 15:19:28;;;;;;;7.41;2.19;;;;;;;20.73;44.72;100700.80;;;;-62
2019/11/19 15:22:28;;;;;;;2.99;1.70;;;;;;;20.76;44.83;100705.73;;;;-57
2019/11/19 15:25:28;;;;;;;6.46;1.93;;;;;;;20.79;44.93;100705.02;;;;-54
2019/11/19 15:28:28;;;;;;;3.18;1.91;;;;;;;20.79;45.16;100705.46;;;;-57
2019/11/19 15:31:28;;;;;;;4.64;1.70;;;;;;;20.82;45.17;100712.13;;;;-58
2019/11/19 15:34:28;;;;;;;3.57;1.66;;;;;;;20.84;45.16;100714.34;;;;-58
2019/11/19 15:37:28;;;;;;;3.41;1.64;;;;;;;20.85;45.17;100713.60;;;;-58
2019/11/19 15:40:28;;;;;;;3.40;1.71;;;;;;;20.86;45.23;100716.27;;;;-59
2019/11/19 15:43:28;;;;;;;2.39;1.70;;;;;;;20.86;45.23;100715.20;;;;-55
2019/11/19 15:46:28;;;;;;;3.09;1.77;;;;;;;20.88;45.26;100722.19;;;;-55
2019/11/19 15:49:28;;;;;;;6.72;1.89;;;;;;;20.82;45.00;100727.11;;;;-56
2019/11/19 15:52:28;;;;;;;2.79;1.94;;;;;;;20.83;43.54;100731.14;;;;-54
2019/11/19 15:55:28;;;;;;;3.95;1.85;;;;;;;20.82;44.12;100736.30;;;;-60
2019/11/19 15:58:28;;;;;;;2.84;1.91;;;;;;;20.82;44.30;100739.89;;;;-58
2019/11/19 16:01:28;;;;;;;4.22;1.99;;;;;;;20.80;43.88;100742.36;;;;-58
2019/11/19 16:07:28;;;;;;;4.29;2.28;;;;;;;20.79;43.71;100743.23;;;;-54
2019/11/19 16:10:28;;;;;;;3.53;2.03;;;;;;;20.78;43.56;100748.72;;;;-53
2019/11/19 16:13:28;;;;;;;5.98;2.00;;;;;;;20.79;43.70;100748.56;;;;-58
2019/11/19 16:16:28;;;;;;;3.21;1.94;;;;;;;20.80;43.93;100754.89;;;;-53
2019/11/19 16:19:28;;;;;;;2.89;1.94;;;;;;;20.80;43.93;100756.63;;;;-54
2019/11/19 16:22:28;;;;;;;4.06;1.86;;;;;;;20.79;43.89;100751.12;;;;-62
2019/11/19 16:25:28;;;;;;;3.56;2.22;;;;;;;20.81;43.93;100750.53;;;;-58
2019/11/19 16:28:28;;;;;;;3.07;1.83;;;;;;;20.82;43.93;100748.43;;;;-56
2019/11/19 16:31:28;;;;;;;3.39;1.90;;;;;;;20.84;44.13;100758.09;;;;-56
2019/11/19 16:34:28;;;;;;;2.07;1.87;;;;;;;20.86;44.46;100760.98;;;;-58
2019/11/19 16:37:28;;;;;;;3.95;2.03;;;;;;;20.86;44.55;100763.95;;;;-57
2019/11/19 16:40:28;;;;;;;4.69;2.00;;;;;;;20.87;44.67;100759.13;;;;-53
2019/11/19 16:43:28;;;;;;;4.07;1.88;;;;;;;20.88;44.73;100759.73;;;;-57
2019/11/19 16:46:28;;;;;;;4.75;1.95;;;;;;;20.88;44.30;100758.39;;;;-54
2019/11/19 16:49:28;;;;;;;3.09;2.10;;;;;;;20.88;44.50;100767.80;;;;-53